Ventnor, New Jersey
Current Conditions -  °F | °C
As of 4:54 PM on Sunday 21 Dec 2014 (Local Time) from KACY Reporting Station
Clear Clear  
Wind Chill: 30°   Ceiling: Unl
Heat Index: 34°   Visibility: 10mi
Dew Point: 21°   Wind: 5mph
Humidity: 59%   Direction: 330°NNW
Pressure: 30.29"   Gusts: NA
Location:  39.3406°N, 74.4859°W
Report Text: KACY 212154Z 33004KT 10SM CLR 01/M06 A3029 RMK AO2 SLP259 T00111061
Loading
Personal Weather Stations






























Interactive Weather Map New forecast layout! Learn more

10-Day Weather Forecast

Advertisements
Track Severe Weather on mobile